sensor_id;sensor_type;location;lat;lon;timestamp;temperature;humidity
19088;DHT22;9676;50.916;13.352;2022-08-19T00:00:13;24.80;63.00
19088;DHT22;9676;50.916;13.352;2022-08-19T00:03:05;24.70;63.00
19088;DHT22;9676;50.916;13.352;2022-08-19T00:05:55;24.80;63.30
19088;DHT22;9676;50.916;13.352;2022-08-19T00:08:45;24.70;63.30
19088;DHT22;9676;50.916;13.352;2022-08-19T00:11:35;24.70;63.40
19088;DHT22;9676;50.916;13.352;2022-08-19T00:14:26;24.70;63.50
19088;DHT22;9676;50.916;13.352;2022-08-19T00:17:17;24.70;63.70
19088;DHT22;9676;50.916;13.352;2022-08-19T00:20:11;24.70;63.80
19088;DHT22;9676;50.916;13.352;2022-08-19T00:23:01;24.70;64.40
19088;DHT22;9676;50.916;13.352;2022-08-19T00:25:51;24.70;64.10
19088;DHT22;9676;50.916;13.352;2022-08-19T00:28:41;24.70;64.20
19088;DHT22;9676;50.916;13.352;2022-08-19T00:31:31;24.70;64.50
19088;DHT22;9676;50.916;13.352;2022-08-19T00:34:21;24.60;64.60
19088;DHT22;9676;50.916;13.352;2022-08-19T00:37:12;24.60;64.80
19088;DHT22;9676;50.916;13.352;2022-08-19T00:40:04;24.70;65.20
19088;DHT22;9676;50.916;13.352;2022-08-19T00:42:54;24.70;65.30
19088;DHT22;9676;50.916;13.352;2022-08-19T00:45:44;24.70;65.40
19088;DHT22;9676;50.916;13.352;2022-08-19T00:48:34;24.60;65.50
19088;DHT22;9676;50.916;13.352;2022-08-19T00:51:25;24.60;65.60
19088;DHT22;9676;50.916;13.352;2022-08-19T00:54:17;24.60;65.80
19088;DHT22;9676;50.916;13.352;2022-08-19T00:57:18;24.60;66.30
19088;DHT22;9676;50.916;13.352;2022-08-19T01:00:13;24.70;66.50
19088;DHT22;9676;50.916;13.352;2022-08-19T01:03:06;24.60;66.40
19088;DHT22;9676;50.916;13.352;2022-08-19T01:05:57;24.70;67.40
19088;DHT22;9676;50.916;13.352;2022-08-19T01:08:47;24.70;66.50
19088;DHT22;9676;50.916;13.352;2022-08-19T01:11:41;24.60;66.70
19088;DHT22;9676;50.916;13.352;2022-08-19T01:14:31;24.60;67.30
19088;DHT22;9676;50.916;13.352;2022-08-19T01:17:21;24.60;67.10
19088;DHT22;9676;50.916;13.352;2022-08-19T01:20:12;24.60;67.30
19088;DHT22;9676;50.916;13.352;2022-08-19T01:23:05;24.60;67.60
19088;DHT22;9676;50.916;13.352;2022-08-19T01:25:55;24.60;67.70
19088;DHT22;9676;50.916;13.352;2022-08-19T01:28:48;24.60;67.60
19088;DHT22;9676;50.916;13.352;2022-08-19T01:31:40;24.60;68.10
19088;DHT22;9676;50.916;13.352;2022-08-19T01:34:30;24.60;68.10
19088;DHT22;9676;50.916;13.352;2022-08-19T01:37:21;24.60;68.30
19088;DHT22;9676;50.916;13.352;2022-08-19T01:40:16;24.60;68.30
19088;DHT22;9676;50.916;13.352;2022-08-19T01:43:07;24.60;69.00
19088;DHT22;9676;50.916;13.352;2022-08-19T01:45:57;24.50;68.70
19088;DHT22;9676;50.916;13.352;2022-08-19T01:48:46;24.50;68.90
19088;DHT22;9676;50.916;13.352;2022-08-19T01:51:37;24.50;69.10
19088;DHT22;9676;50.916;13.352;2022-08-19T01:54:27;24.50;69.30
19088;DHT22;9676;50.916;13.352;2022-08-19T01:57:18;24.60;69.60
19088;DHT22;9676;50.916;13.352;2022-08-19T02:00:10;24.50;69.90
19088;DHT22;9676;50.916;13.352;2022-08-19T02:03:03;24.60;70.20
19088;DHT22;9676;50.916;13.352;2022-08-19T02:05:55;24.50;70.20
19088;DHT22;9676;50.916;13.352;2022-08-19T02:08:45;24.50;70.40
19088;DHT22;9676;50.916;13.352;2022-08-19T02:11:38;24.50;70.40
19088;DHT22;9676;50.916;13.352;2022-08-19T02:14:29;24.60;70.70
19088;DHT22;9676;50.916;13.352;2022-08-19T02:17:18;24.50;71.00
19088;DHT22;9676;50.916;13.352;2022-08-19T02:20:09;24.50;71.10
19088;DHT22;9676;50.916;13.352;2022-08-19T02:23:00;24.60;71.50
19088;DHT22;9676;50.916;13.352;2022-08-19T02:25:51;24.60;71.60
19088;DHT22;9676;50.916;13.352;2022-08-19T02:28:42;24.50;71.60
19088;DHT22;9676;50.916;13.352;2022-08-19T02:31:33;24.50;71.70
19088;DHT22;9676;50.916;13.352;2022-08-19T02:34:22;24.50;72.10
19088;DHT22;9676;50.916;13.352;2022-08-19T02:37:12;24.60;72.20
19088;DHT22;9676;50.916;13.352;2022-08-19T02:40:16;24.60;72.50
19088;DHT22;9676;50.916;13.352;2022-08-19T02:43:08;24.60;72.50
19088;DHT22;9676;50.916;13.352;2022-08-19T02:45:58;24.60;73.80
19088;DHT22;9676;50.916;13.352;2022-08-19T02:48:51;24.50;72.80
19088;DHT22;9676;50.916;13.352;2022-08-19T02:51:44;24.50;73.50
19088;DHT22;9676;50.916;13.352;2022-08-19T02:54:34;24.60;73.50
19088;DHT22;9676;50.916;13.352;2022-08-19T02:57:24;24.60;73.40
19088;DHT22;9676;50.916;13.352;2022-08-19T03:00:14;24.50;73.50
19088;DHT22;9676;50.916;13.352;2022-08-19T03:03:04;24.50;73.80
19088;DHT22;9676;50.916;13.352;2022-08-19T03:06:05;24.50;74.00
19088;DHT22;9676;50.916;13.352;2022-08-19T03:08:56;24.60;75.60
19088;DHT22;9676;50.916;13.352;2022-08-19T03:11:46;24.60;74.40
19088;DHT22;9676;50.916;13.352;2022-08-19T03:14:39;24.60;74.50
19088;DHT22;9676;50.916;13.352;2022-08-19T03:17:29;24.60;74.60
19088;DHT22;9676;50.916;13.352;2022-08-19T03:20:18;24.60;74.80
19088;DHT22;9676;50.916;13.352;2022-08-19T03:23:10;24.60;74.90
19088;DHT22;9676;50.916;13.352;2022-08-19T03:26:03;24.60;75.40
19088;DHT22;9676;50.916;13.352;2022-08-19T03:29:04;24.60;75.90
19088;DHT22;9676;50.916;13.352;2022-08-19T03:31:57;24.60;76.10
19088;DHT22;9676;50.916;13.352;2022-08-19T03:34:48;24.60;75.50
19088;DHT22;9676;50.916;13.352;2022-08-19T03:37:38;24.60;75.60
19088;DHT22;9676;50.916;13.352;2022-08-19T03:40:30;24.60;75.70
19088;DHT22;9676;50.916;13.352;2022-08-19T03:43:19;24.60;76.20
19088;DHT22;9676;50.916;13.352;2022-08-19T03:46:11;24.60;76.10
19088;DHT22;9676;50.916;13.352;2022-08-19T03:49:04;24.60;76.30
19088;DHT22;9676;50.916;13.352;2022-08-19T03:51:55;24.60;76.30
19088;DHT22;9676;50.916;13.352;2022-08-19T03:54:48;24.60;76.30
19088;DHT22;9676;50.916;13.352;2022-08-19T03:57:38;24.60;76.40
19088;DHT22;9676;50.916;13.352;2022-08-19T04:00:28;24.60;76.90
19088;DHT22;9676;50.916;13.352;2022-08-19T04:03:18;24.60;76.70
19088;DHT22;9676;50.916;13.352;2022-08-19T04:06:12;24.60;76.90
19088;DHT22;9676;50.916;13.352;2022-08-19T04:09:05;24.60;77.80
19088;DHT22;9676;50.916;13.352;2022-08-19T04:11:57;24.60;77.30
19088;DHT22;9676;50.916;13.352;2022-08-19T04:14:49;24.60;77.30
19088;DHT22;9676;50.916;13.352;2022-08-19T04:17:38;24.60;77.50
19088;DHT22;9676;50.916;13.352;2022-08-19T04:20:28;24.60;77.40
19088;DHT22;9676;50.916;13.352;2022-08-19T04:23:18;24.60;77.50
19088;DHT22;9676;50.916;13.352;2022-08-19T04:26:12;24.60;77.70
19088;DHT22;9676;50.916;13.352;2022-08-19T04:29:08;24.50;78.70
19088;DHT22;9676;50.916;13.352;2022-08-19T04:32:02;24.50;78.30
19088;DHT22;9676;50.916;13.352;2022-08-19T04:34:56;24.50;78.60
19088;DHT22;9676;50.916;13.352;2022-08-19T04:38:03;24.50;78.30
19088;DHT22;9676;50.916;13.352;2022-08-19T04:40:53;24.50;78.40
19088;DHT22;9676;50.916;13.352;2022-08-19T04:44:00;24.50;78.60
19088;DHT22;9676;50.916;13.352;2022-08-19T04:46:52;24.50;78.70
19088;DHT22;9676;50.916;13.352;2022-08-19T04:49:43;24.50;79.10
19088;DHT22;9676;50.916;13.352;2022-08-19T04:52:33;24.50;79.60
19088;DHT22;9676;50.916;13.352;2022-08-19T04:55:23;24.50;79.40
19088;DHT22;9676;50.916;13.352;2022-08-19T04:58:14;24.50;79.50
19088;DHT22;9676;50.916;13.352;2022-08-19T05:01:04;24.50;79.40
19088;DHT22;9676;50.916;13.352;2022-08-19T05:03:54;24.50;79.60
19088;DHT22;9676;50.916;13.352;2022-08-19T05:06:46;24.50;79.90
19088;DHT22;9676;50.916;13.352;2022-08-19T05:09:37;24.50;80.40
19088;DHT22;9676;50.916;13.352;2022-08-19T05:12:45;24.50;80.10
19088;DHT22;9676;50.916;13.352;2022-08-19T05:15:35;24.50;80.10
19088;DHT22;9676;50.916;13.352;2022-08-19T05:18:25;24.50;80.30
19088;DHT22;9676;50.916;13.352;2022-08-19T05:21:32;24.60;80.70
19088;DHT22;9676;50.916;13.352;2022-08-19T05:24:41;24.50;80.80
19088;DHT22;9676;50.916;13.352;2022-08-19T05:27:50;24.60;81.10
19088;DHT22;9676;50.916;13.352;2022-08-19T05:30:40;24.60;80.90
19088;DHT22;9676;50.916;13.352;2022-08-19T05:33:34;24.60;81.20
19088;DHT22;9676;50.916;13.352;2022-08-19T05:36:24;24.60;81.30
19088;DHT22;9676;50.916;13.352;2022-08-19T05:39:15;24.60;81.50
19088;DHT22;9676;50.916;13.352;2022-08-19T05:42:09;24.60;81.80
19088;DHT22;9676;50.916;13.352;2022-08-19T05:45:00;24.60;82.30
19088;DHT22;9676;50.916;13.352;2022-08-19T05:47:50;24.60;81.70
19088;DHT22;9676;50.916;13.352;2022-08-19T05:50:41;24.50;81.70
19088;DHT22;9676;50.916;13.352;2022-08-19T05:53:33;24.60;82.20
19088;DHT22;9676;50.916;13.352;2022-08-19T05:56:24;24.60;82.30
19088;DHT22;9676;50.916;13.352;2022-08-19T05:59:16;24.60;82.40
19088;DHT22;9676;50.916;13.352;2022-08-19T06:02:11;24.60;83.10
19088;DHT22;9676;50.916;13.352;2022-08-19T06:05:03;24.60;82.60
19088;DHT22;9676;50.916;13.352;2022-08-19T06:07:54;24.60;82.80
19088;DHT22;9676;50.916;13.352;2022-08-19T06:10:44;24.60;82.90
19088;DHT22;9676;50.916;13.352;2022-08-19T06:13:33;24.60;83.10
19088;DHT22;9676;50.916;13.352;2022-08-19T06:16:25;24.60;83.20
19088;DHT22;9676;50.916;13.352;2022-08-19T06:19:16;24.60;83.50
19088;DHT22;9676;50.916;13.352;2022-08-19T06:22:07;24.60;83.70
19088;DHT22;9676;50.916;13.352;2022-08-19T06:24:59;24.70;83.70
19088;DHT22;9676;50.916;13.352;2022-08-19T06:27:49;24.70;83.80
19088;DHT22;9676;50.916;13.352;2022-08-19T06:30:58;24.70;84.10
19088;DHT22;9676;50.916;13.352;2022-08-19T06:33:50;24.70;84.20
19088;DHT22;9676;50.916;13.352;2022-08-19T06:36:41;24.70;84.70
19088;DHT22;9676;50.916;13.352;2022-08-19T06:39:36;24.70;84.80
19088;DHT22;9676;50.916;13.352;2022-08-19T06:42:27;24.70;85.50
19088;DHT22;9676;50.916;13.352;2022-08-19T06:45:17;24.70;85.20
19088;DHT22;9676;50.916;13.352;2022-08-19T06:48:11;24.80;85.50
19088;DHT22;9676;50.916;13.352;2022-08-19T06:51:02;24.80;85.50
19088;DHT22;9676;50.916;13.352;2022-08-19T06:53:55;24.80;85.80
19088;DHT22;9676;50.916;13.352;2022-08-19T06:56:45;24.80;85.50
19088;DHT22;9676;50.916;13.352;2022-08-19T06:59:35;24.80;85.60
19088;DHT22;9676;50.916;13.352;2022-08-19T07:02:24;24.90;85.90
19088;DHT22;9676;50.916;13.352;2022-08-19T07:05:14;24.90;86.00
19088;DHT22;9676;50.916;13.352;2022-08-19T07:08:08;24.80;86.10
19088;DHT22;9676;50.916;13.352;2022-08-19T07:10:58;24.90;86.80
19088;DHT22;9676;50.916;13.352;2022-08-19T07:13:48;24.90;87.00
19088;DHT22;9676;50.916;13.352;2022-08-19T07:16:40;24.90;87.30
19088;DHT22;9676;50.916;13.352;2022-08-19T07:19:30;24.90;87.50
19088;DHT22;9676;50.916;13.352;2022-08-19T07:22:20;24.90;87.70
19088;DHT22;9676;50.916;13.352;2022-08-19T07:25:13;25.00;87.80
19088;DHT22;9676;50.916;13.352;2022-08-19T07:28:04;25.00;88.10
19088;DHT22;9676;50.916;13.352;2022-08-19T07:31:12;25.00;87.90
19088;DHT22;9676;50.916;13.352;2022-08-19T07:34:07;25.10;88.10
19088;DHT22;9676;50.916;13.352;2022-08-19T07:36:58;25.10;88.50
19088;DHT22;9676;50.916;13.352;2022-08-19T07:39:47;25.10;88.60
19088;DHT22;9676;50.916;13.352;2022-08-19T07:42:39;25.10;88.80
19088;DHT22;9676;50.916;13.352;2022-08-19T07:45:29;25.10;89.30
19088;DHT22;9676;50.916;13.352;2022-08-19T07:48:20;25.10;88.90
19088;DHT22;9676;50.916;13.352;2022-08-19T07:51:15;25.10;89.00
19088;DHT22;9676;50.916;13.352;2022-08-19T07:54:26;25.10;89.50
19088;DHT22;9676;50.916;13.352;2022-08-19T07:57:17;25.10;90.10
19088;DHT22;9676;50.916;13.352;2022-08-19T08:00:09;25.00;89.80
19088;DHT22;9676;50.916;13.352;2022-08-19T08:02:59;25.00;90.40
19088;DHT22;9676;50.916;13.352;2022-08-19T08:05:48;25.00;90.30
19088;DHT22;9676;50.916;13.352;2022-08-19T08:08:55;25.00;90.40
19088;DHT22;9676;50.916;13.352;2022-08-19T08:12:05;24.90;90.40
19088;DHT22;9676;50.916;13.352;2022-08-19T08:15:19;24.90;90.60
19088;DHT22;9676;50.916;13.352;2022-08-19T08:18:12;24.90;90.70
19088;DHT22;9676;50.916;13.352;2022-08-19T08:21:01;24.90;90.80
19088;DHT22;9676;50.916;13.352;2022-08-19T08:23:51;24.90;91.00
19088;DHT22;9676;50.916;13.352;2022-08-19T08:26:43;24.90;91.30
19088;DHT22;9676;50.916;13.352;2022-08-19T08:29:43;24.90;91.60
19088;DHT22;9676;50.916;13.352;2022-08-19T08:32:35;25.00;92.00
19088;DHT22;9676;50.916;13.352;2022-08-19T08:35:27;25.10;92.20
19088;DHT22;9676;50.916;13.352;2022-08-19T08:38:17;25.20;92.10
19088;DHT22;9676;50.916;13.352;2022-08-19T08:41:12;25.20;92.00
19088;DHT22;9676;50.916;13.352;2022-08-19T08:44:14;25.30;92.20
19088;DHT22;9676;50.916;13.352;2022-08-19T08:47:12;25.40;92.10
19088;DHT22;9676;50.916;13.352;2022-08-19T08:50:09;25.50;91.90
19088;DHT22;9676;50.916;13.352;2022-08-19T08:53:03;25.50;91.80
19088;DHT22;9676;50.916;13.352;2022-08-19T08:55:55;25.50;91.70
19088;DHT22;9676;50.916;13.352;2022-08-19T08:58:50;25.60;91.70
19088;DHT22;9676;50.916;13.352;2022-08-19T09:01:42;25.60;92.10
19088;DHT22;9676;50.916;13.352;2022-08-19T09:04:31;25.60;91.80
19088;DHT22;9676;50.916;13.352;2022-08-19T09:07:30;25.70;91.90
19088;DHT22;9676;50.916;13.352;2022-08-19T09:10:34;25.70;92.10
19088;DHT22;9676;50.916;13.352;2022-08-19T09:13:38;25.70;91.80
19088;DHT22;9676;50.916;13.352;2022-08-19T09:16:33;25.70;92.10
19088;DHT22;9676;50.916;13.352;2022-08-19T09:19:24;25.70;91.80
19088;DHT22;9676;50.916;13.352;2022-08-19T09:22:16;25.70;92.00
19088;DHT22;9676;50.916;13.352;2022-08-19T09:25:16;25.70;92.20
19088;DHT22;9676;50.916;13.352;2022-08-19T09:28:13;25.70;92.60
19088;DHT22;9676;50.916;13.352;2022-08-19T09:31:13;25.70;92.30
19088;DHT22;9676;50.916;13.352;2022-08-19T09:34:04;25.80;92.50
19088;DHT22;9676;50.916;13.352;2022-08-19T09:36:53;25.80;92.60
19088;DHT22;9676;50.916;13.352;2022-08-19T09:39:46;25.80;92.80
19088;DHT22;9676;50.916;13.352;2022-08-19T09:42:38;25.90;93.00
19088;DHT22;9676;50.916;13.352;2022-08-19T09:45:39;25.90;93.00
19088;DHT22;9676;50.916;13.352;2022-08-19T09:48:29;26.00;93.40
19088;DHT22;9676;50.916;13.352;2022-08-19T09:51:21;26.10;93.30
19088;DHT22;9676;50.916;13.352;2022-08-19T09:54:12;26.20;93.30
19088;DHT22;9676;50.916;13.352;2022-08-19T09:57:10;26.20;92.90
19088;DHT22;9676;50.916;13.352;2022-08-19T10:00:03;26.30;92.60
19088;DHT22;9676;50.916;13.352;2022-08-19T10:03:13;26.30;92.60
19088;DHT22;9676;50.916;13.352;2022-08-19T10:06:05;26.40;92.90
19088;DHT22;9676;50.916;13.352;2022-08-19T10:09:05;26.40;93.20
19088;DHT22;9676;50.916;13.352;2022-08-19T10:11:55;26.50;93.30
19088;DHT22;9676;50.916;13.352;2022-08-19T10:14:49;26.60;93.50
19088;DHT22;9676;50.916;13.352;2022-08-19T10:17:42;26.70;93.50
19088;DHT22;9676;50.916;13.352;2022-08-19T10:20:41;26.80;93.90
19088;DHT22;9676;50.916;13.352;2022-08-19T10:23:31;27.00;94.80
19088;DHT22;9676;50.916;13.352;2022-08-19T10:26:23;27.30;95.00
19088;DHT22;9676;50.916;13.352;2022-08-19T10:29:14;27.50;95.20
19088;DHT22;9676;50.916;13.352;2022-08-19T10:32:19;27.90;95.40
19088;DHT22;9676;50.916;13.352;2022-08-19T10:35:22;28.20;94.90
19088;DHT22;9676;50.916;13.352;2022-08-19T10:38:14;28.50;94.10
19088;DHT22;9676;50.916;13.352;2022-08-19T10:41:09;28.80;93.30
19088;DHT22;9676;50.916;13.352;2022-08-19T10:44:01;28.90;92.40
19088;DHT22;9676;50.916;13.352;2022-08-19T10:46:53;29.10;92.10
19088;DHT22;9676;50.916;13.352;2022-08-19T10:49:43;29.20;91.90
19088;DHT22;9676;50.916;13.352;2022-08-19T10:52:52;29.40;92.30
19088;DHT22;9676;50.916;13.352;2022-08-19T10:55:44;29.70;93.60
19088;DHT22;9676;50.916;13.352;2022-08-19T10:58:52;30.20;93.50
19088;DHT22;9676;50.916;13.352;2022-08-19T11:01:43;30.60;92.30
19088;DHT22;9676;50.916;13.352;2022-08-19T11:04:33;30.80;90.30
19088;DHT22;9676;50.916;13.352;2022-08-19T11:07:22;31.00;86.30
19088;DHT22;9676;50.916;13.352;2022-08-19T11:10:14;31.00;83.80
19088;DHT22;9676;50.916;13.352;2022-08-19T11:13:09;30.90;82.10
19088;DHT22;9676;50.916;13.352;2022-08-19T11:16:00;30.80;80.90
19088;DHT22;9676;50.916;13.352;2022-08-19T11:18:57;30.70;79.80
19088;DHT22;9676;50.916;13.352;2022-08-19T11:21:48;30.60;79.10
19088;DHT22;9676;50.916;13.352;2022-08-19T11:24:38;30.40;78.60
19088;DHT22;9676;50.916;13.352;2022-08-19T11:27:29;30.20;77.80
19088;DHT22;9676;50.916;13.352;2022-08-19T11:30:18;30.00;77.30
19088;DHT22;9676;50.916;13.352;2022-08-19T11:33:08;29.90;77.40
19088;DHT22;9676;50.916;13.352;2022-08-19T11:35:58;29.60;77.40
19088;DHT22;9676;50.916;13.352;2022-08-19T11:38:49;29.50;77.90
19088;DHT22;9676;50.916;13.352;2022-08-19T11:41:39;29.30;78.90
19088;DHT22;9676;50.916;13.352;2022-08-19T11:44:30;29.20;79.50
19088;DHT22;9676;50.916;13.352;2022-08-19T11:47:23;29.00;79.50
19088;DHT22;9676;50.916;13.352;2022-08-19T11:50:14;28.90;79.50
19088;DHT22;9676;50.916;13.352;2022-08-19T11:53:04;28.80;79.20
19088;DHT22;9676;50.916;13.352;2022-08-19T11:55:56;28.70;79.20
19088;DHT22;9676;50.916;13.352;2022-08-19T11:58:46;28.50;79.20
19088;DHT22;9676;50.916;13.352;2022-08-19T12:01:38;28.40;79.10
19088;DHT22;9676;50.916;13.352;2022-08-19T12:04:28;28.30;79.40
19088;DHT22;9676;50.916;13.352;2022-08-19T12:07:18;28.10;79.30
19088;DHT22;9676;50.916;13.352;2022-08-19T12:10:08;28.00;79.50
19088;DHT22;9676;50.916;13.352;2022-08-19T12:12:58;27.80;79.90
19088;DHT22;9676;50.916;13.352;2022-08-19T12:15:48;27.70;80.50
19088;DHT22;9676;50.916;13.352;2022-08-19T12:18:39;27.60;80.90
19088;DHT22;9676;50.916;13.352;2022-08-19T12:21:33;27.40;81.40
19088;DHT22;9676;50.916;13.352;2022-08-19T12:24:23;27.30;81.90
19088;DHT22;9676;50.916;13.352;2022-08-19T12:27:13;27.20;82.20
19088;DHT22;9676;50.916;13.352;2022-08-19T12:30:18;27.10;82.80
19088;DHT22;9676;50.916;13.352;2022-08-19T12:33:08;27.00;83.40
19088;DHT22;9676;50.916;13.352;2022-08-19T12:36:02;26.90;84.00
19088;DHT22;9676;50.916;13.352;2022-08-19T12:38:53;26.90;85.60
19088;DHT22;9676;50.916;13.352;2022-08-19T12:41:43;26.80;85.20
19088;DHT22;9676;50.916;13.352;2022-08-19T12:44:42;26.70;85.80
19088;DHT22;9676;50.916;13.352;2022-08-19T12:47:32;26.70;86.40
19088;DHT22;9676;50.916;13.352;2022-08-19T12:50:25;26.60;86.60
19088;DHT22;9676;50.916;13.352;2022-08-19T12:53:17;26.60;87.10
19088;DHT22;9676;50.916;13.352;2022-08-19T12:56:07;26.60;88.00
19088;DHT22;9676;50.916;13.352;2022-08-19T12:59:01;26.60;88.10
19088;DHT22;9676;50.916;13.352;2022-08-19T13:01:51;26.60;89.00
19088;DHT22;9676;50.916;13.352;2022-08-19T13:04:41;26.60;88.80
19088;DHT22;9676;50.916;13.352;2022-08-19T13:07:32;26.50;88.90
19088;DHT22;9676;50.916;13.352;2022-08-19T13:10:25;26.50;89.40
19088;DHT22;9676;50.916;13.352;2022-08-19T13:13:16;26.50;90.20
19088;DHT22;9676;50.916;13.352;2022-08-19T13:16:07;26.50;89.70
19088;DHT22;9676;50.916;13.352;2022-08-19T13:18:57;26.50;90.00
19088;DHT22;9676;50.916;13.352;2022-08-19T13:21:50;26.40;90.10
19088;DHT22;9676;50.916;13.352;2022-08-19T13:24:47;26.40;90.80
19088;DHT22;9676;50.916;13.352;2022-08-19T13:27:39;26.40;90.50
19088;DHT22;9676;50.916;13.352;2022-08-19T13:30:29;26.30;90.80
19088;DHT22;9676;50.916;13.352;2022-08-19T13:33:36;26.30;90.70
19088;DHT22;9676;50.916;13.352;2022-08-19T13:36:25;26.30;90.80
19088;DHT22;9676;50.916;13.352;2022-08-19T13:39:15;26.20;90.80
19088;DHT22;9676;50.916;13.352;2022-08-19T13:42:05;26.20;90.80
19088;DHT22;9676;50.916;13.352;2022-08-19T13:44:57;26.10;90.90
19088;DHT22;9676;50.916;13.352;2022-08-19T13:47:48;26.10;91.10
19088;DHT22;9676;50.916;13.352;2022-08-19T13:50:45;26.10;91.10
19088;DHT22;9676;50.916;13.352;2022-08-19T13:53:36;26.00;91.20
19088;DHT22;9676;50.916;13.352;2022-08-19T13:56:26;26.00;91.50
19088;DHT22;9676;50.916;13.352;2022-08-19T13:59:16;26.00;91.70
19088;DHT22;9676;50.916;13.352;2022-08-19T14:02:07;26.00;91.80
19088;DHT22;9676;50.916;13.352;2022-08-19T14:04:58;26.10;92.10
19088;DHT22;9676;50.916;13.352;2022-08-19T14:07:48;26.10;92.10
19088;DHT22;9676;50.916;13.352;2022-08-19T14:10:38;26.10;92.00
19088;DHT22;9676;50.916;13.352;2022-08-19T14:13:28;26.20;92.00
19088;DHT22;9676;50.916;13.352;2022-08-19T14:16:18;26.20;92.00
19088;DHT22;9676;50.916;13.352;2022-08-19T14:19:10;26.20;91.90
19088;DHT22;9676;50.916;13.352;2022-08-19T14:22:00;26.20;92.00
19088;DHT22;9676;50.916;13.352;2022-08-19T14:24:49;26.20;91.80
19088;DHT22;9676;50.916;13.352;2022-08-19T14:27:39;26.20;91.80
19088;DHT22;9676;50.916;13.352;2022-08-19T14:30:32;26.20;92.10
19088;DHT22;9676;50.916;13.352;2022-08-19T14:33:22;26.30;92.60
19088;DHT22;9676;50.916;13.352;2022-08-19T14:36:19;26.30;92.50
19088;DHT22;9676;50.916;13.352;2022-08-19T14:39:09;26.30;92.30
19088;DHT22;9676;50.916;13.352;2022-08-19T14:41:59;26.40;91.90
19088;DHT22;9676;50.916;13.352;2022-08-19T14:44:49;26.40;91.60
19088;DHT22;9676;50.916;13.352;2022-08-19T14:47:39;26.40;91.50
19088;DHT22;9676;50.916;13.352;2022-08-19T14:50:28;26.40;91.30
19088;DHT22;9676;50.916;13.352;2022-08-19T14:53:19;26.30;91.20
19088;DHT22;9676;50.916;13.352;2022-08-19T14:56:11;26.30;91.30
19088;DHT22;9676;50.916;13.352;2022-08-19T14:59:02;26.30;91.20
19088;DHT22;9676;50.916;13.352;2022-08-19T15:01:52;26.30;91.40
19088;DHT22;9676;50.916;13.352;2022-08-19T15:04:41;26.20;91.50
19088;DHT22;9676;50.916;13.352;2022-08-19T15:07:31;26.30;91.80
19088;DHT22;9676;50.916;13.352;2022-08-19T15:10:22;26.30;92.20
19088;DHT22;9676;50.916;13.352;2022-08-19T15:13:12;26.30;92.60
19088;DHT22;9676;50.916;13.352;2022-08-19T15:16:03;26.40;92.70
19088;DHT22;9676;50.916;13.352;2022-08-19T15:18:59;26.50;92.40
19088;DHT22;9676;50.916;13.352;2022-08-19T15:21:48;26.50;92.00
19088;DHT22;9676;50.916;13.352;2022-08-19T15:24:38;26.60;91.60
19088;DHT22;9676;50.916;13.352;2022-08-19T15:27:36;26.60;91.40
19088;DHT22;9676;50.916;13.352;2022-08-19T15:30:28;26.60;91.30
19088;DHT22;9676;50.916;13.352;2022-08-19T15:33:18;26.50;91.10
19088;DHT22;9676;50.916;13.352;2022-08-19T15:36:08;26.50;90.90
19088;DHT22;9676;50.916;13.352;2022-08-19T15:39:04;26.50;90.90
19088;DHT22;9676;50.916;13.352;2022-08-19T15:41:56;26.40;90.90
19088;DHT22;9676;50.916;13.352;2022-08-19T15:44:49;26.30;90.90
19088;DHT22;9676;50.916;13.352;2022-08-19T15:47:40;26.30;91.30
19088;DHT22;9676;50.916;13.352;2022-08-19T15:50:31;26.20;91.50
19088;DHT22;9676;50.916;13.352;2022-08-19T15:53:21;26.20;91.80
19088;DHT22;9676;50.916;13.352;2022-08-19T15:56:11;26.20;91.90
19088;DHT22;9676;50.916;13.352;2022-08-19T15:59:00;26.20;92.00
19088;DHT22;9676;50.916;13.352;2022-08-19T16:02:08;26.20;91.90
19088;DHT22;9676;50.916;13.352;2022-08-19T16:05:21;26.20;92.00
19088;DHT22;9676;50.916;13.352;2022-08-19T16:08:29;26.20;92.00
19088;DHT22;9676;50.916;13.352;2022-08-19T16:11:35;26.10;91.80
19088;DHT22;9676;50.916;13.352;2022-08-19T16:14:27;26.10;91.70
19088;DHT22;9676;50.916;13.352;2022-08-19T16:17:19;26.10;91.70
19088;DHT22;9676;50.916;13.352;2022-08-19T16:20:10;26.00;91.70
19088;DHT22;9676;50.916;13.352;2022-08-19T16:23:00;26.00;91.50
19088;DHT22;9676;50.916;13.352;2022-08-19T16:25:51;26.00;91.50
19088;DHT22;9676;50.916;13.352;2022-08-19T16:28:41;26.00;91.90
19088;DHT22;9676;50.916;13.352;2022-08-19T16:31:36;25.90;91.70
19088;DHT22;9676;50.916;13.352;2022-08-19T16:34:27;25.90;91.80
19088;DHT22;9676;50.916;13.352;2022-08-19T16:37:17;25.80;91.90
19088;DHT22;9676;50.916;13.352;2022-08-19T16:40:10;25.80;91.90
19088;DHT22;9676;50.916;13.352;2022-08-19T16:43:00;25.80;92.00
19088;DHT22;9676;50.916;13.352;2022-08-19T16:45:52;25.70;92.00
19088;DHT22;9676;50.916;13.352;2022-08-19T16:48:41;25.70;92.20
19088;DHT22;9676;50.916;13.352;2022-08-19T16:51:33;25.70;92.20
19088;DHT22;9676;50.916;13.352;2022-08-19T16:54:23;25.70;92.40
19088;DHT22;9676;50.916;13.352;2022-08-19T16:57:19;25.70;92.30
19088;DHT22;9676;50.916;13.352;2022-08-19T17:00:11;25.70;92.40
19088;DHT22;9676;50.916;13.352;2022-08-19T17:03:05;25.70;92.50
19088;DHT22;9676;50.916;13.352;2022-08-19T17:06:01;25.70;92.80
19088;DHT22;9676;50.916;13.352;2022-08-19T17:09:08;25.70;92.60
19088;DHT22;9676;50.916;13.352;2022-08-19T17:11:58;25.70;92.60
19088;DHT22;9676;50.916;13.352;2022-08-19T17:14:48;25.70;92.50
19088;DHT22;9676;50.916;13.352;2022-08-19T17:17:37;25.70;92.50
19088;DHT22;9676;50.916;13.352;2022-08-19T17:20:27;25.70;92.50
19088;DHT22;9676;50.916;13.352;2022-08-19T17:23:17;25.60;92.50
19088;DHT22;9676;50.916;13.352;2022-08-19T17:26:29;25.60;92.60
19088;DHT22;9676;50.916;13.352;2022-08-19T17:29:19;25.60;92.80
19088;DHT22;9676;50.916;13.352;2022-08-19T17:32:09;25.50;92.60
19088;DHT22;9676;50.916;13.352;2022-08-19T17:34:58;25.50;92.70
19088;DHT22;9676;50.916;13.352;2022-08-19T17:37:48;25.50;92.80
19088;DHT22;9676;50.916;13.352;2022-08-19T17:40:38;25.50;92.90
19088;DHT22;9676;50.916;13.352;2022-08-19T17:43:32;25.40;92.90
19088;DHT22;9676;50.916;13.352;2022-08-19T17:46:30;25.40;93.20
19088;DHT22;9676;50.916;13.352;2022-08-19T17:49:20;25.30;93.00
19088;DHT22;9676;50.916;13.352;2022-08-19T17:52:10;25.30;93.10
19088;DHT22;9676;50.916;13.352;2022-08-19T17:55:00;25.30;93.20
19088;DHT22;9676;50.916;13.352;2022-08-19T17:57:50;25.20;93.20
19088;DHT22;9676;50.916;13.352;2022-08-19T18:00:41;25.20;93.30
19088;DHT22;9676;50.916;13.352;2022-08-19T18:03:41;25.20;93.60
19088;DHT22;9676;50.916;13.352;2022-08-19T18:06:31;25.20;93.50
19088;DHT22;9676;50.916;13.352;2022-08-19T18:09:25;25.10;93.50